createdAt,value
2022-08-11T00:00:00.162Z,958
2022-08-11T00:05:00.163Z,958.4
2022-08-11T00:10:00.201Z,958.4
2022-08-11T00:15:00.179Z,958.6
2022-08-11T00:20:12.930Z,958.4
2022-08-11T00:25:02.541Z,959.3
2022-08-11T00:30:00.167Z,959.3
2022-08-11T00:35:54.595Z,959.3
2022-08-11T00:40:00.338Z,959.3
2022-08-11T00:45:00.161Z,959.7
2022-08-11T00:50:00.197Z,959.9
2022-08-11T00:55:00.182Z,959.7
2022-08-11T01:00:00.192Z,960.1
2022-08-11T01:05:00.164Z,960.6
2022-08-11T01:10:05.076Z,960.4
2022-08-11T01:15:00.168Z,960.8
2022-08-11T01:20:46.117Z,961
2022-08-11T01:25:00.167Z,961.2
2022-08-11T01:30:00.188Z,961.4
2022-08-11T01:35:00.160Z,961.4
2022-08-11T01:40:00.203Z,961.7
2022-08-11T01:45:00.183Z,961.9
2022-08-11T01:50:09.584Z,961.4
2022-08-11T01:55:00.162Z,961.9
2022-08-11T02:00:00.167Z,961.9
2022-08-11T02:05:01.115Z,962.3
2022-08-11T02:10:00.175Z,962.3
2022-08-11T02:15:04.992Z,962.1
2022-08-11T02:20:00.181Z,962.7
2022-08-11T02:25:00.158Z,962.7
2022-08-11T02:30:00.200Z,962.7
2022-08-11T02:35:00.673Z,962.7
2022-08-11T02:40:00.202Z,962.7
2022-08-11T02:45:00.255Z,962.7
2022-08-11T02:50:06.945Z,963
2022-08-11T02:55:00.248Z,962.7
2022-08-11T03:00:00.210Z,962.7
2022-08-11T03:05:00.173Z,962.5
2022-08-11T03:10:00.172Z,962.7
2022-08-11T03:15:00.165Z,963.2
2022-08-11T03:20:00.220Z,963.2
2022-08-11T03:25:00.164Z,963.4
2022-08-11T03:30:00.182Z,963.2
2022-08-11T03:35:00.161Z,963
2022-08-11T03:40:00.376Z,963.4
2022-08-11T03:45:00.155Z,963.4
2022-08-11T03:50:00.168Z,963.4
2022-08-11T03:55:00.157Z,963.4
2022-08-11T04:00:00.184Z,963.4
2022-08-11T04:05:00.211Z,963.8
2022-08-11T04:10:00.175Z,964
2022-08-11T04:15:00.159Z,964
2022-08-11T04:20:00.182Z,964
2022-08-11T04:25:00.171Z,964.3
2022-08-11T04:30:03.286Z,964.5
2022-08-11T04:35:00.165Z,964.9
2022-08-11T04:40:00.182Z,964.5
2022-08-11T04:45:00.153Z,964.7
2022-08-11T04:50:00.194Z,964.9
2022-08-11T04:55:00.156Z,964.9
2022-08-11T05:00:00.224Z,964.9
2022-08-11T05:05:00.164Z,964.9
2022-08-11T05:10:00.162Z,964.5
2022-08-11T05:15:00.160Z,964.7
2022-08-11T05:20:00.172Z,964.7
2022-08-11T05:25:00.160Z,964.5
2022-08-11T05:30:00.199Z,964.5
2022-08-11T05:35:00.158Z,964
2022-08-11T05:40:00.352Z,964.3
2022-08-11T05:45:00.155Z,964
2022-08-11T05:50:00.162Z,963.6
2022-08-11T05:55:00.211Z,963.4
2022-08-11T06:00:00.222Z,963.4
2022-08-11T06:05:00.164Z,963.4
2022-08-11T06:10:00.176Z,963.2
2022-08-11T06:15:00.155Z,963.2
2022-08-11T06:20:06.964Z,962.7
2022-08-11T06:25:00.158Z,962.7
2022-08-11T06:30:00.171Z,962.3
2022-08-11T06:35:00.157Z,962.1
2022-08-11T06:40:00.403Z,961.4
2022-08-11T06:45:00.156Z,961.9
2022-08-11T06:50:00.166Z,961.4
2022-08-11T06:55:00.166Z,961
2022-08-11T07:00:00.190Z,961
2022-08-11T07:05:00.164Z,961.2
2022-08-11T07:10:00.201Z,960.4
2022-08-11T07:15:00.705Z,959.7
2022-08-11T07:20:00.167Z,959.7
2022-08-11T07:25:00.156Z,959.3
2022-08-11T07:30:00.172Z,959.3
2022-08-11T07:35:00.168Z,958.8
2022-08-11T07:40:00.354Z,959.3
2022-08-11T07:45:00.161Z,958.8
2022-08-11T07:50:00.160Z,958.8
2022-08-11T07:55:00.518Z,958.4
2022-08-11T08:00:04.797Z,958
2022-08-11T08:05:00.156Z,956.4
2022-08-11T08:10:00.185Z,955.4
2022-08-11T08:15:01.223Z,955.4
2022-08-11T08:20:00.167Z,955.4
2022-08-11T08:25:00.177Z,954.7
2022-08-11T08:30:00.187Z,954.9
2022-08-11T08:35:00.159Z,953.6
2022-08-11T08:40:00.178Z,953.6
2022-08-11T08:45:00.165Z,953.2
2022-08-11T08:50:00.140Z,953.2
2022-08-11T08:55:00.198Z,952.7
2022-08-11T09:00:00.225Z,953.2
2022-08-11T09:05:00.270Z,951.9
2022-08-11T09:10:00.131Z,952.1
2022-08-11T09:15:00.168Z,951.9
2022-08-11T09:20:00.149Z,952.3
2022-08-11T09:25:00.155Z,952.3
2022-08-11T09:30:00.188Z,951
2022-08-11T09:35:00.136Z,952.3
2022-08-11T09:40:00.221Z,950.6
2022-08-11T09:45:00.969Z,951
2022-08-11T09:50:00.929Z,950.6
2022-08-11T09:55:00.133Z,950.4
2022-08-11T10:00:12.559Z,951.2
2022-08-11T10:05:00.133Z,950.6
2022-08-11T10:10:00.213Z,949.9
2022-08-11T10:15:00.151Z,951.2
2022-08-11T10:20:03.984Z,951
2022-08-11T10:25:00.136Z,949.7
2022-08-11T10:30:00.184Z,950.6
2022-08-11T10:35:00.132Z,949.3
2022-08-11T10:40:00.181Z,950.1
2022-08-11T10:45:00.169Z,949.5
2022-08-11T10:50:00.181Z,949.3
2022-08-11T10:55:00.166Z,948.8
2022-08-11T11:00:00.176Z,948.8
2022-08-11T11:05:00.161Z,948.4
2022-08-11T11:10:00.165Z,949
2022-08-11T11:15:00.233Z,948
2022-08-11T11:20:00.146Z,948.8
2022-08-11T11:25:00.176Z,948.8
2022-08-11T11:30:00.194Z,948.6
2022-08-11T11:35:00.170Z,948.8
2022-08-11T11:40:00.164Z,948
2022-08-11T11:45:01.434Z,948
2022-08-11T11:50:00.185Z,948
2022-08-11T11:55:00.164Z,947.1
2022-08-11T12:00:00.204Z,947.1
2022-08-11T12:05:00.168Z,947.7
2022-08-11T12:10:00.175Z,948.4
2022-08-11T12:15:00.169Z,946.7
2022-08-11T12:20:00.170Z,947.3
2022-08-11T12:25:00.158Z,947.5
2022-08-11T12:30:00.248Z,945.6
2022-08-11T12:35:00.157Z,946.2
2022-08-11T12:40:16.975Z,945.6
2022-08-11T12:45:00.161Z,944.5
2022-08-11T12:50:00.185Z,944
2022-08-11T12:55:00.241Z,944.9
2022-08-11T13:00:00.194Z,944.9
2022-08-11T13:05:00.165Z,944
2022-08-11T13:10:00.163Z,943.6
2022-08-11T13:15:00.162Z,944.5
2022-08-11T13:20:00.167Z,944
2022-08-11T13:25:00.166Z,944.3
2022-08-11T13:30:00.164Z,944.5
2022-08-11T13:35:00.162Z,944.9
2022-08-11T13:40:00.363Z,944.5
2022-08-11T13:45:00.163Z,944.7
2022-08-11T13:50:00.179Z,944.9
2022-08-11T13:55:00.164Z,944.7
2022-08-11T14:00:00.168Z,944.5
2022-08-11T14:05:00.174Z,944.5
2022-08-11T14:10:00.182Z,944.5
2022-08-11T14:15:04.468Z,944
2022-08-11T14:20:00.268Z,944.3
2022-08-11T14:25:00.251Z,944.3
2022-08-11T14:30:00.234Z,944.9
2022-08-11T14:35:00.164Z,944.7
2022-08-11T14:40:03.326Z,944
2022-08-11T14:45:00.158Z,943.2
2022-08-11T14:50:10.024Z,943.2
2022-08-11T14:55:00.158Z,942.7
2022-08-11T15:00:00.191Z,943.2
2022-08-11T15:05:00.158Z,943
2022-08-11T15:10:13.569Z,943.2
2022-08-11T15:15:00.154Z,944
2022-08-11T15:20:00.366Z,944
2022-08-11T15:25:00.211Z,943.4
2022-08-11T15:30:00.349Z,944
2022-08-11T15:35:03.712Z,943.8
2022-08-11T15:40:00.403Z,943.8
2022-08-11T15:45:03.251Z,944
2022-08-11T15:50:11.701Z,944.5
2022-08-11T15:55:00.158Z,944.9
2022-08-11T16:00:00.182Z,945.4
2022-08-11T16:05:00.154Z,944.3
2022-08-11T16:10:00.727Z,944.9
2022-08-11T16:15:00.166Z,944.9
2022-08-11T16:20:00.203Z,944.9
2022-08-11T16:27:01.381Z,945.4
2022-08-11T16:30:00.163Z,944.3
2022-08-11T16:35:00.169Z,945.1
2022-08-11T16:40:00.256Z,946
2022-08-11T16:45:00.163Z,946.2
2022-08-11T16:50:00.163Z,946
2022-08-11T16:55:00.157Z,945.8
2022-08-11T17:00:00.182Z,945.8
2022-08-11T17:05:00.167Z,944
2022-08-11T17:10:00.177Z,943.6
2022-08-11T17:15:00.158Z,945.4
2022-08-11T17:20:41.889Z,945.4
2022-08-11T17:25:00.181Z,947.5
2022-08-11T17:30:00.163Z,947.1
2022-08-11T17:35:00.169Z,947.3
2022-08-11T17:40:00.251Z,947.5
2022-08-11T17:45:00.182Z,947.3
2022-08-11T17:50:09.283Z,947.7
2022-08-11T17:55:00.155Z,948.8
2022-08-11T18:00:00.189Z,949.3
2022-08-11T18:05:00.167Z,950.1
2022-08-11T18:10:00.171Z,951.4
2022-08-11T18:15:00.158Z,952.3
2022-08-11T18:20:00.189Z,953.2
2022-08-11T18:25:00.163Z,953.6
2022-08-11T18:30:00.191Z,954.5
2022-08-11T18:35:00.177Z,955.8
2022-08-11T18:40:00.333Z,956.2
2022-08-11T18:45:00.248Z,957.1
2022-08-11T18:50:02.592Z,958
2022-08-11T18:55:00.253Z,958.6
2022-08-11T19:00:00.401Z,959.3
2022-08-11T19:05:00.159Z,960.1
2022-08-11T19:10:00.174Z,960.6
2022-08-11T19:15:00.242Z,961.4
2022-08-11T19:20:00.174Z,962.3
2022-08-11T19:25:00.165Z,963
2022-08-11T19:30:07.786Z,963.2
2022-08-11T19:35:00.166Z,963.6
2022-08-11T19:40:00.255Z,964
2022-08-11T19:45:00.158Z,963.4
2022-08-11T19:50:00.176Z,963.6
2022-08-11T19:55:00.163Z,963.6
2022-08-11T20:00:00.159Z,963.6
2022-08-11T20:05:00.169Z,963.6
2022-08-11T20:10:05.181Z,963.4
2022-08-11T20:15:00.157Z,963.6
2022-08-11T20:25:00.170Z,963.2
2022-08-11T20:30:00.205Z,962.7
2022-08-11T20:35:00.158Z,962.3
2022-08-11T20:40:00.205Z,961.9
2022-08-11T20:45:00.170Z,962.3
2022-08-11T20:50:00.170Z,962.3
2022-08-11T20:55:00.670Z,962.3
2022-08-11T21:00:00.169Z,962.7
2022-08-11T21:05:00.613Z,962.7
2022-08-11T21:10:09.614Z,962.7
2022-08-11T21:15:00.177Z,962.5
2022-08-11T21:20:07.986Z,961.4
2022-08-11T21:25:00.171Z,960.6
2022-08-11T21:30:00.193Z,958.8
2022-08-11T21:35:00.156Z,959.3
2022-08-11T21:40:00.312Z,959.7
2022-08-11T21:45:00.166Z,959.7
2022-08-11T21:50:00.192Z,960.6
2022-08-11T21:55:00.177Z,960.6
2022-08-11T22:00:00.177Z,961
2022-08-11T22:05:00.189Z,961.9
2022-08-11T22:10:00.163Z,962.3
2022-08-11T22:15:00.161Z,962.7
2022-08-11T22:20:00.876Z,962.7
2022-08-11T22:25:00.174Z,963.2
2022-08-11T22:30:00.170Z,963.2
2022-08-11T22:35:00.170Z,963.2
2022-08-11T22:40:02.912Z,962.7
2022-08-11T22:45:00.163Z,962.7
2022-08-11T22:50:00.164Z,961.9
2022-08-11T22:55:00.178Z,961.9
2022-08-11T23:00:00.179Z,962.3
2022-08-11T23:05:00.165Z,961.7
2022-08-11T23:10:00.265Z,961.4
2022-08-11T23:15:00.212Z,961.7
2022-08-11T23:20:09.257Z,961
2022-08-11T23:25:00.163Z,961.2
2022-08-11T23:30:00.216Z,961
2022-08-11T23:35:37.372Z,960.8
2022-08-11T23:40:00.186Z,961
2022-08-11T23:45:00.167Z,961
2022-08-11T23:50:00.224Z,961.4
2022-08-11T23:55:00.163Z,961.2
